Time;durP1;ratioP1;P1;durP2;ratioP2;P2;SDS_P1;SDS_P2;PMS_P1;PMS_P2;Temp;Humidity;BMP_temperature;BMP_pressure;BME280_temperature;BME280_humidity;BME280_pressure;Samples;Min_cycle;Max_cycle;Signal;HPM_P1;HPM_P2
2020/12/13 00:02:19;;;;;;;58.13;28.40;;;2.70;81.70;;;;;;5095410;28;20036;-40
2020/12/13 00:04:45;;;;;;;56.78;30.00;;;2.70;81.80;;;;;;5095329;28;20028;-40
2020/12/13 00:07:10;;;;;;;51.70;24.58;;;2.80;81.90;;;;;;5095666;28;20028;-40
2020/12/13 00:09:36;;;;;;;61.83;27.67;;;2.80;81.80;;;;;;5095929;28;20459;-42
2020/12/13 00:12:03;;;;;;;56.67;26.63;;;2.80;81.80;;;;;;5096786;28;20024;-40
2020/12/13 00:14:29;;;;;;;65.47;29.25;;;2.80;81.70;;;;;;5096611;28;20328;-40
2020/12/13 00:16:55;;;;;;;75.70;30.23;;;2.80;81.70;;;;;;5096593;28;20088;-40
2020/12/13 00:19:21;;;;;;;57.38;24.40;;;2.80;81.60;;;;;;5096568;28;20020;-41
2020/12/13 00:21:51;;;;;;;64.40;28.67;;;2.80;81.60;;;;;;5096408;28;20032;-40
2020/12/13 00:24:18;;;;;;;69.40;30.58;;;2.80;81.60;;;;;;5096373;28;20024;-40
2020/12/13 00:26:43;;;;;;;62.55;28.50;;;2.80;81.60;;;;;;5096224;28;20134;-40
2020/12/13 00:29:09;;;;;;;73.38;31.23;;;2.90;81.50;;;;;;5096531;28;20024;-42
2020/12/13 00:31:35;;;;;;;69.13;30.58;;;2.90;81.60;;;;;;5095699;28;20070;-40
2020/12/13 00:34:01;;;;;;;74.10;30.58;;;2.90;81.60;;;;;;5096112;28;20028;-42
2020/12/13 00:36:26;;;;;;;71.53;30.08;;;2.90;81.50;;;;;;5095560;28;20349;-41
2020/12/13 00:38:52;;;;;;;71.93;32.13;;;2.90;81.50;;;;;;5096061;28;20418;-40
2020/12/13 00:41:18;;;;;;;68.90;30.48;;;2.90;81.60;;;;;;5095139;28;20032;-42
2020/12/13 00:43:43;;;;;;;71.28;32.10;;;2.90;81.60;;;;;;5095129;28;20111;-40
2020/12/13 00:46:09;;;;;;;75.93;31.30;;;2.90;81.50;;;;;;5094403;28;20534;-40
2020/12/13 00:48:35;;;;;;;76.07;31.75;;;2.90;81.50;;;;;;5094834;28;20028;-40
2020/12/13 00:51:00;;;;;;;70.45;31.73;;;2.90;81.50;;;;;;5095137;28;20491;-42
2020/12/13 00:53:26;;;;;;;69.20;31.95;;;2.90;81.50;;;;;;5098711;28;20111;-40
2020/12/13 00:55:52;;;;;;;95.95;34.13;;;2.90;81.60;;;;;;5098268;28;20039;-42
2020/12/13 00:58:17;;;;;;;79.57;34.35;;;2.90;81.70;;;;;;5099332;28;20028;-40
2020/12/13 01:00:43;;;;;;;66.10;31.13;;;2.90;81.60;;;;;;5099862;28;20051;-41
2020/12/13 01:03:09;;;;;;;70.13;31.63;;;2.90;81.60;;;;;;5099979;28;20318;-40
2020/12/13 01:05:34;;;;;;;70.38;30.17;;;2.90;81.60;;;;;;5100030;28;20028;-42
2020/12/13 01:08:00;;;;;;;67.05;32.33;;;2.90;81.60;;;;;;5099708;28;20041;-40
2020/12/13 01:10:26;;;;;;;65.93;32.25;;;2.90;81.60;;;;;;5099877;28;20020;-41
2020/12/13 01:12:52;;;;;;;68.47;30.58;;;2.90;81.50;;;;;;5099947;28;20024;-40
2020/12/13 01:15:18;;;;;;;67.03;30.10;;;2.90;81.60;;;;;;5099767;28;20368;-41
2020/12/13 01:17:49;;;;;;;76.75;34.40;;;2.90;81.60;;;;;;5099865;28;20077;-40
2020/12/13 01:20:15;;;;;;;;;;;2.90;81.70;;;;;;5099492;28;20119;-40
2020/12/13 01:22:41;;;;;;;69.53;33.92;;;2.90;81.40;;;;;;5097975;28;20011;-40
2020/12/13 01:25:08;;;;;;;72.82;32.47;;;2.90;81.60;;;;;;5098038;28;20024;-41
2020/12/13 01:27:35;;;;;;;70.03;32.03;;;2.90;81.70;;;;;;5098195;28;20027;-40
2020/12/13 01:30:01;;;;;;;82.13;36.25;;;2.90;81.70;;;;;;5097582;28;20024;-40
2020/12/13 01:32:27;;;;;;;73.88;31.45;;;2.90;81.60;;;;;;5098068;28;20071;-40
2020/12/13 01:34:53;;;;;;;82.93;34.28;;;2.90;81.70;;;;;;5097460;28;20043;-41
2020/12/13 01:37:18;;;;;;;76.35;35.90;;;2.90;82.30;;;;;;5099045;28;20032;-40
2020/12/13 01:39:44;;;;;;;76.28;33.25;;;2.90;81.80;;;;;;5099401;28;20020;-41
2020/12/13 01:42:10;;;;;;;67.22;31.15;;;2.90;81.80;;;;;;5099601;28;20035;-40
2020/12/13 01:44:37;;;;;;;77.95;35.38;;;2.90;81.70;;;;;;5099010;28;20414;-39
2020/12/13 01:47:06;;;;;;;74.25;32.92;;;2.90;81.60;;;;;;5099128;28;20384;-37
2020/12/13 01:49:41;;;;;;;69.82;33.47;;;2.90;81.50;;;;;;5098608;28;20028;-37
2020/12/13 01:55:05;;;;;;;69.43;35.03;;;2.90;81.50;;;;;;5098557;28;20096;-37
2020/12/13 01:57:35;;;;;;;85.50;37.05;;;2.90;81.70;;;;;;5099289;28;20034;-38
2020/12/13 02:00:11;;;;;;;70.82;31.90;;;2.90;81.60;;;;;;5099283;28;20329;-37
2020/12/13 02:02:52;;;;;;;77.68;33.80;;;2.90;81.70;;;;;;5098678;28;20414;-40
2020/12/13 02:05:20;;;;;;;91.20;38.15;;;2.90;81.90;;;;;;5098711;28;20060;-40
2020/12/13 02:07:47;;;;;;;73.40;33.13;;;2.90;81.90;;;;;;5098698;28;20059;-40
2020/12/13 02:10:14;;;;;;;94.65;39.70;;;2.90;81.80;;;;;;5097667;28;20067;-40
2020/12/13 02:12:39;;;;;;;97.70;41.70;;;2.90;81.90;;;;;;5097238;28;20444;-40
2020/12/13 02:15:06;;;;;;;110.80;43.03;;;2.90;81.80;;;;;;5098299;28;20028;-41
2020/12/13 02:17:34;;;;;;;114.70;46.97;;;2.90;81.80;;;;;;5098928;28;20028;-40
2020/12/13 02:20:11;;;;;;;98.13;42.47;;;2.90;81.90;;;;;;5098414;28;20027;-40
2020/12/13 02:22:48;;;;;;;130.52;48.92;;;2.90;81.90;;;;;;5098817;28;20028;-40
2020/12/13 02:25:17;;;;;;;126.82;49.85;;;2.90;81.90;;;;;;5098236;28;20430;-40
2020/12/13 02:27:43;;;;;;;120.55;47.20;;;2.90;81.90;;;;;;5098228;28;20031;-40
2020/12/13 02:30:09;;;;;;;100.65;42.47;;;2.90;81.90;;;;;;5098286;28;20032;-38
2020/12/13 02:32:35;;;;;;;109.40;44.97;;;2.90;82.10;;;;;;5098526;28;20384;-38
2020/12/13 02:35:03;;;;;;;108.97;43.17;;;2.90;82.10;;;;;;5097715;28;20074;-39
2020/12/13 02:37:28;;;;;;;117.90;46.88;;;2.90;82.10;;;;;;5098627;28;20348;-38
2020/12/13 02:39:54;;;;;;;119.88;48.20;;;2.90;82.20;;;;;;5097635;28;20123;-38
2020/12/13 02:42:20;;;;;;;99.22;42.90;;;2.90;81.90;;;;;;5097789;28;20118;-38
2020/12/13 02:44:46;;;;;;;105.25;41.35;;;2.90;81.90;;;;;;5098193;28;20020;-39
2020/12/13 02:47:11;;;;;;;101.88;41.45;;;2.90;82.00;;;;;;5097684;28;20038;-38
2020/12/13 02:49:42;;;;;;;102.43;41.85;;;2.90;82.00;;;;;;5097754;28;20024;-40
2020/12/13 02:52:08;;;;;;;98.55;43.03;;;2.90;82.10;;;;;;5098124;28;20315;-38
2020/12/13 02:54:34;;;;;;;98.13;42.13;;;2.90;82.00;;;;;;5097515;28;20036;-38
2020/12/13 02:57:00;;;;;;;105.97;44.63;;;2.90;82.00;;;;;;5097332;28;20114;-38
2020/12/13 02:59:26;;;;;;;91.20;39.03;;;2.90;82.20;;;;;;5097542;28;20115;-38
2020/12/13 03:01:52;;;;;;;89.15;37.15;;;2.90;82.10;;;;;;5097966;28;20111;-38
2020/12/13 03:04:17;;;;;;;77.13;35.10;;;3.00;82.30;;;;;;5097485;28;20030;-39
2020/12/13 03:06:43;;;;;;;70.18;33.42;;;3.00;82.30;;;;;;5097954;28;20024;-38
2020/12/13 03:09:09;;;;;;;81.82;36.78;;;3.00;82.20;;;;;;5097310;28;20425;-38
2020/12/13 03:11:34;;;;;;;66.03;33.72;;;3.00;82.20;;;;;;5097832;28;20099;-38
2020/12/13 03:14:00;;;;;;;83.43;34.78;;;3.00;82.20;;;;;;5096669;28;20434;-39
2020/12/13 03:16:26;;;;;;;77.85;32.90;;;3.00;82.20;;;;;;5097426;28;20027;-38
2020/12/13 03:18:51;;;;;;;77.25;35.60;;;3.00;82.20;;;;;;5097222;28;20119;-38
2020/12/13 03:21:17;;;;;;;70.97;31.98;;;3.00;82.10;;;;;;5097173;28;20028;-40
2020/12/13 03:23:43;;;;;;;84.78;35.83;;;3.00;82.10;;;;;;5097841;28;20035;-38
2020/12/13 03:26:09;;;;;;;78.57;31.70;;;3.00;82.20;;;;;;5095686;28;20418;-38
2020/12/13 03:28:34;;;;;;;72.40;32.80;;;3.00;82.20;;;;;;5095783;28;20080;-38
2020/12/13 03:31:00;;;;;;;74.95;32.30;;;3.10;82.20;;;;;;5095194;28;20056;-38
2020/12/13 03:33:26;;;;;;;77.25;35.08;;;3.00;82.10;;;;;;5095737;28;20039;-38
2020/12/13 03:35:51;;;;;;;76.20;32.00;;;3.00;82.10;;;;;;5095437;28;20078;-38
2020/12/13 03:38:17;;;;;;;71.18;30.05;;;3.00;82.20;;;;;;5095670;28;20134;-38
2020/12/13 03:40:43;;;;;;;70.25;33.00;;;3.00;82.10;;;;;;5095167;28;20118;-40
2020/12/13 03:43:09;;;;;;;66.70;29.83;;;3.00;82.10;;;;;;5095776;28;20039;-38
2020/12/13 03:45:35;;;;;;;64.50;28.83;;;3.00;82.20;;;;;;5095630;28;20394;-39
2020/12/13 03:48:00;;;;;;;67.32;28.63;;;3.00;82.20;;;;;;5095912;28;20028;-38
2020/12/13 03:50:38;;;;;;;78.15;30.65;;;3.00;82.10;;;;;;5096044;28;20422;-40
2020/12/13 03:53:05;;;;;;;59.97;27.52;;;3.10;82.10;;;;;;5096408;28;20040;-38
2020/12/13 03:55:30;;;;;;;72.97;31.10;;;3.10;82.10;;;;;;5096080;28;20036;-38
2020/12/13 03:57:56;;;;;;;67.30;31.50;;;3.10;82.30;;;;;;5097047;28;20038;-38
2020/12/13 04:00:22;;;;;;;69.70;31.63;;;3.10;82.30;;;;;;5096542;28;20123;-38
2020/12/13 04:02:47;;;;;;;65.43;27.40;;;3.10;82.30;;;;;;5096678;28;20329;-40
2020/12/13 04:05:13;;;;;;;64.38;29.98;;;3.10;82.30;;;;;;5096197;28;20020;-41
2020/12/13 04:07:39;;;;;;;68.68;30.45;;;3.10;82.20;;;;;;5096946;28;20077;-40
2020/12/13 04:10:04;;;;;;;69.80;29.45;;;3.00;82.10;;;;;;5096681;28;20024;-41
2020/12/13 04:12:30;;;;;;;74.43;33.65;;;3.10;82.10;;;;;;5096377;28;20111;-40
2020/12/13 04:14:56;;;;;;;73.60;33.50;;;3.10;82.10;;;;;;5096301;28;20390;-41
2020/12/13 04:17:21;;;;;;;63.88;29.25;;;3.10;82.20;;;;;;5096665;28;20028;-40
2020/12/13 04:19:47;;;;;;;61.95;29.35;;;3.10;82.30;;;;;;5096284;28;20451;-41
2020/12/13 04:22:13;;;;;;;66.32;29.33;;;3.10;82.20;;;;;;5096668;28;20032;-40
2020/12/13 04:24:38;;;;;;;61.53;27.83;;;3.10;82.20;;;;;;5096475;28;20111;-38
2020/12/13 04:27:04;;;;;;;65.82;29.30;;;3.10;82.20;;;;;;5099121;28;20433;-38
2020/12/13 04:29:30;;;;;;;65.97;31.38;;;3.10;82.10;;;;;;5100474;28;20047;-39
2020/12/13 04:31:55;;;;;;;68.10;30.40;;;3.10;82.00;;;;;;5100323;28;20097;-38
2020/12/13 04:34:21;;;;;;;58.15;28.08;;;3.10;82.10;;;;;;5100319;28;20422;-40
2020/12/13 04:36:47;;;;;;;71.20;31.23;;;3.10;82.20;;;;;;5100616;28;20062;-38
2020/12/13 04:39:12;;;;;;;71.22;33.45;;;3.10;82.20;;;;;;5100284;28;20032;-39
2020/12/13 04:41:38;;;;;;;85.38;36.25;;;3.10;82.20;;;;;;5100229;28;20024;-38
2020/12/13 04:44:04;;;;;;;82.78;36.00;;;3.10;82.20;;;;;;5100151;28;20330;-39
2020/12/13 04:46:30;;;;;;;84.63;36.38;;;3.10;82.20;;;;;;5100671;28;20048;-38
2020/12/13 04:48:56;;;;;;;96.55;41.47;;;3.10;82.10;;;;;;5099802;28;20017;-38
2020/12/13 04:51:26;;;;;;;95.50;40.30;;;3.10;82.10;;;;;;5100386;28;20065;-38
2020/12/13 04:54:03;;;;;;;94.78;39.47;;;3.10;82.00;;;;;;5099689;28;20028;-38
2020/12/13 04:56:34;;;;;;;103.53;41.47;;;3.10;82.00;;;;;;5100179;28;20036;-38
2020/12/13 04:59:05;;;;;;;93.18;38.15;;;3.10;82.00;;;;;;5099924;28;20025;-38
2020/12/13 05:01:31;;;;;;;93.82;40.08;;;3.10;82.10;;;;;;5100130;28;20092;-38
2020/12/13 05:03:57;;;;;;;86.75;38.00;;;3.00;82.10;;;;;;5100133;28;20077;-38
2020/12/13 05:06:25;;;;;;;96.13;39.53;;;3.00;82.30;;;;;;5100106;28;20074;-38
2020/12/13 05:08:52;;;;;;;108.72;40.25;;;3.00;82.30;;;;;;5099961;28;20032;-38
2020/12/13 05:11:18;;;;;;;84.40;36.60;;;3.00;82.40;;;;;;5099709;28;20111;-38
2020/12/13 05:13:43;;;;;;;92.63;38.80;;;3.00;82.30;;;;;;5100109;28;20115;-38
2020/12/13 05:16:10;;;;;;;88.93;37.47;;;3.10;82.40;;;;;;5099718;28;20128;-39
2020/12/13 05:18:40;;;;;;;100.93;41.15;;;3.10;82.40;;;;;;5099897;28;20024;-38
2020/12/13 05:21:07;;;;;;;88.63;36.65;;;3.10;82.50;;;;;;5099417;28;20030;-38
2020/12/13 05:23:33;;;;;;;93.40;39.72;;;3.10;82.30;;;;;;5100283;28;20106;-41
2020/12/13 05:25:59;;;;;;;87.60;39.95;;;3.10;82.40;;;;;;5098482;28;20020;-41
2020/12/13 05:28:25;;;;;;;104.75;42.67;;;3.10;82.40;;;;;;5098401;28;20030;-42
2020/12/13 05:30:52;;;;;;;85.50;39.03;;;3.10;82.50;;;;;;5097379;28;20051;-41
2020/12/13 05:33:34;;;;;;;106.63;41.20;;;3.10;82.40;;;;;;5098207;28;20181;-42
2020/12/13 05:36:01;;;;;;;98.95;40.08;;;3.10;82.40;;;;;;5098765;28;20182;-41
2020/12/13 05:38:35;;;;;;;98.97;40.10;;;3.10;82.40;;;;;;5098202;28;20024;-41
2020/12/13 05:41:01;;;;;;;92.85;39.63;;;3.10;82.40;;;;;;5098945;28;20343;-41
2020/12/13 05:43:31;;;;;;;106.70;43.92;;;3.10;82.30;;;;;;5098780;28;20036;-42
2020/12/13 05:53:29;;;;;;;101.20;44.95;;;3.10;82.10;;;;;;5097319;28;20326;-41
2020/12/13 05:55:57;;;;;;;95.82;40.38;;;3.10;82.20;;;;;;5098040;28;20043;-41
2020/12/13 05:58:26;;;;;;;107.90;43.50;;;3.10;82.20;;;;;;5103531;28;20487;-38
2020/12/13 06:00:54;;;;;;;114.18;44.80;;;3.10;82.80;;;;;;5117959;28;20028;-39
2020/12/13 06:03:30;;;;;;;109.47;44.88;;;3.10;82.20;;;;;;5119230;28;20043;-38
2020/12/13 06:06:09;;;;;;;94.40;38.28;;;3.10;82.40;;;;;;5119292;28;20104;-38
2020/12/13 06:09:04;;;;;;;106.35;47.28;;;3.10;82.30;;;;;;5119231;28;20042;-38
2020/12/13 06:11:49;;;;;;;104.47;42.20;;;3.10;82.30;;;;;;5119193;28;20024;-39
2020/12/13 06:14:19;;;;;;;99.30;41.20;;;3.10;82.40;;;;;;5113451;28;20046;-39
2020/12/13 06:16:47;;;;;;;100.00;41.75;;;3.10;82.60;;;;;;5106815;28;20131;-39
2020/12/13 06:19:15;;;;;;;105.55;41.10;;;3.10;82.50;;;;;;5098815;28;20027;-39
2020/12/13 06:21:43;;;;;;;117.00;47.25;;;3.00;82.40;;;;;;5098155;28;20317;-38
2020/12/13 06:24:09;;;;;;;104.85;46.38;;;3.00;82.40;;;;;;5098060;28;20352;-40
2020/12/13 06:26:35;;;;;;;104.75;42.50;;;3.10;82.50;;;;;;5096266;28;20030;-39
2020/12/13 06:29:03;;;;;;;95.65;41.75;;;3.10;82.60;;;;;;5097906;28;20103;-40
2020/12/13 06:31:30;;;;;;;89.85;41.45;;;3.10;83.00;;;;;;5097814;28;20055;-39
2020/12/13 06:33:56;;;;;;;114.38;48.17;;;3.10;82.70;;;;;;5097937;28;20024;-40
2020/12/13 06:36:24;;;;;;;89.00;40.20;;;3.10;82.70;;;;;;5097832;28;20032;-40
2020/12/13 06:38:55;;;;;;;89.05;40.03;;;3.10;82.60;;;;;;5096177;28;20032;-40
2020/12/13 06:41:27;;;;;;;87.25;41.95;;;3.10;82.40;;;;;;5097711;28;20020;-40
2020/12/13 06:44:01;;;;;;;91.50;41.55;;;3.10;82.40;;;;;;5098354;28;20043;-40
2020/12/13 06:46:29;;;;;;;77.95;40.58;;;3.10;82.40;;;;;;5096958;28;20414;-40
2020/12/13 06:48:55;;;;;;;75.82;36.75;;;3.10;82.30;;;;;;5095206;28;20024;-40
2020/12/13 06:51:30;;;;;;;86.03;40.75;;;3.10;82.20;;;;;;5097134;28;20326;-40
2020/12/13 06:53:56;;;;;;;76.15;35.40;;;3.10;82.40;;;;;;5111717;28;20122;-40
2020/12/13 06:56:23;;;;;;;81.82;38.08;;;3.10;82.40;;;;;;5117459;28;20031;-40
2020/12/13 06:59:01;;;;;;;76.47;36.47;;;3.10;82.40;;;;;;5117827;28;20031;-40
2020/12/13 07:01:39;;;;;;;89.50;39.40;;;3.10;82.40;;;;;;5115687;28;20490;-40
2020/12/13 07:04:34;;;;;;;96.07;42.67;;;3.10;82.40;;;;;;5114677;28;20020;-40
2020/12/13 07:07:10;;;;;;;81.95;37.08;;;3.10;82.40;;;;;;5114256;28;20091;-40
2020/12/13 07:09:39;;;;;;;87.85;42.08;;;3.10;82.60;;;;;;5113685;28;20024;-40
2020/12/13 07:12:04;;;;;;;88.10;40.13;;;3.10;82.70;;;;;;5116212;28;20421;-41
2020/12/13 07:14:33;;;;;;;97.35;44.97;;;3.10;82.60;;;;;;5116335;28;20160;-42
2020/12/13 07:17:13;;;;;;;77.95;39.03;;;3.10;82.60;;;;;;5116650;28;20036;-40
2020/12/13 07:19:39;;;;;;;101.93;43.00;;;3.10;82.70;;;;;;5116687;28;20082;-40
2020/12/13 07:22:09;;;;;;;94.63;42.92;;;3.10;82.60;;;;;;5116187;28;20028;-41
2020/12/13 07:24:35;;;;;;;84.97;39.97;;;3.20;82.70;;;;;;5116569;28;20019;-40
2020/12/13 07:27:01;;;;;;;87.38;42.08;;;3.20;82.70;;;;;;5116588;28;20027;-40
2020/12/13 07:29:29;;;;;;;91.30;41.05;;;3.20;82.60;;;;;;5116520;28;20024;-41
2020/12/13 07:31:55;;;;;;;84.57;38.83;;;3.20;82.30;;;;;;5116382;28;20083;-40
2020/12/13 07:34:21;;;;;;;94.10;41.78;;;3.20;82.20;;;;;;5117322;28;20065;-40
2020/12/13 07:36:47;;;;;;;88.82;40.03;;;3.20;82.20;;;;;;5117459;28;20051;-40
2020/12/13 07:39:13;;;;;;;86.10;40.50;;;3.20;82.30;;;;;;5117404;28;20030;-41
2020/12/13 07:41:47;;;;;;;86.55;38.72;;;3.20;82.40;;;;;;5117431;28;20403;-40
2020/12/13 07:44:14;;;;;;;73.20;36.63;;;3.30;82.50;;;;;;5112120;28;20023;-40
2020/12/13 07:46:41;;;;;;;74.20;37.53;;;3.30;83.10;;;;;;5106252;28;20026;-41
2020/12/13 07:49:13;;;;;;;81.63;37.95;;;3.30;82.50;;;;;;5095492;28;20073;-41
2020/12/13 07:51:41;;;;;;;90.30;41.30;;;3.30;82.60;;;;;;5095159;28;20042;-40
2020/12/13 07:54:12;;;;;;;89.80;41.13;;;3.30;82.50;;;;;;5105133;28;20023;-41
2020/12/13 07:56:37;;;;;;;89.18;40.20;;;3.30;82.40;;;;;;5109288;28;20071;-40
2020/12/13 07:59:12;;;;;;;82.35;40.97;;;3.30;82.40;;;;;;5099283;28;20393;-41
2020/12/13 08:01:39;;;;;;;77.07;37.53;;;3.30;82.40;;;;;;5114400;28;20024;-40
2020/12/13 08:04:05;;;;;;;74.45;34.85;;;3.30;82.40;;;;;;5113774;28;20036;-41
2020/12/13 08:06:32;;;;;;;71.85;35.28;;;3.30;82.40;;;;;;5115489;28;20029;-40
2020/12/13 08:08:59;;;;;;;74.70;35.25;;;3.30;82.30;;;;;;5114126;28;20317;-41
2020/12/13 08:11:26;;;;;;;71.32;33.67;;;3.40;82.40;;;;;;5115717;28;20019;-41
2020/12/13 08:13:54;;;;;;;75.22;38.90;;;3.40;82.30;;;;;;5113941;28;20050;-41
2020/12/13 08:16:25;;;;;;;78.72;37.63;;;3.40;82.10;;;;;;5115953;28;20039;-46
2020/12/13 08:18:56;;;;;;;83.20;38.65;;;3.40;82.00;;;;;;5083089;28;20032;-45
2020/12/13 08:21:30;;;;;;;234.60;105.85;;;3.40;82.00;;;;;;5095032;28;20070;-45
2020/12/13 08:24:01;;;;;;;126.07;60.50;;;3.40;82.00;;;;;;5093981;28;20028;-45
2020/12/13 08:26:28;;;;;;;127.22;66.55;;;3.40;82.00;;;;;;5107207;28;20345;-42
2020/12/13 08:29:00;;;;;;;291.00;150.32;;;3.40;82.00;;;;;;5114564;28;20032;-42
2020/12/13 08:31:32;;;;;;;192.15;99.40;;;3.40;82.00;;;;;;5114198;28;20071;-45
2020/12/13 08:34:06;;;;;;;125.25;70.30;;;3.50;82.20;;;;;;5112015;28;20027;-44
2020/12/13 08:36:38;;;;;;;99.03;59.97;;;3.50;82.00;;;;;;5112287;28;20039;-45
2020/12/13 08:39:10;;;;;;;85.10;45.80;;;3.50;81.90;;;;;;5114197;28;20150;-45
2020/12/13 08:41:46;;;;;;;71.25;35.50;;;3.50;81.90;;;;;;5114153;28;20024;-46
2020/12/13 08:44:35;;;;;;;80.95;38.17;;;3.50;81.90;;;;;;5113023;28;20039;-45
2020/12/13 08:47:06;;;;;;;74.45;36.40;;;3.50;81.60;;;;;;5093148;28;20126;-40
2020/12/13 08:49:50;;;;;;;69.30;34.75;;;3.50;81.60;;;;;;5102712;28;20424;-41
2020/12/13 08:52:23;;;;;;;69.03;33.13;;;3.50;81.60;;;;;;5109573;28;20032;-40
2020/12/13 08:54:52;;;;;;;69.47;32.58;;;3.50;81.60;;;;;;5113279;28;20038;-41
2020/12/13 08:57:45;;;;;;;75.38;35.30;;;3.50;81.60;;;;;;5112643;28;20051;-40
2020/12/13 09:00:12;;;;;;;67.80;32.58;;;3.50;81.60;;;;;;5113406;28;20065;-40
2020/12/13 09:02:38;;;;;;;73.28;36.35;;;3.50;81.60;;;;;;5114158;28;20023;-40
2020/12/13 09:05:06;;;;;;;77.47;36.88;;;3.50;81.30;;;;;;5114914;28;20028;-41
2020/12/13 09:07:32;;;;;;;70.88;33.72;;;3.50;81.30;;;;;;5114867;28;20041;-40
2020/12/13 09:10:12;;;;;;;65.72;30.70;;;3.50;81.30;;;;;;5114413;28;20024;-41
2020/12/13 09:12:39;;;;;;;52.55;29.48;;;3.50;81.30;;;;;;5117377;28;20027;-40
2020/12/13 09:15:12;;;;;;;57.05;30.73;;;3.50;81.20;;;;;;5119104;28;20050;-41
2020/12/13 09:17:40;;;;;;;63.50;31.25;;;3.50;81.20;;;;;;5119892;28;20126;-40
2020/12/13 09:20:06;;;;;;;48.80;25.08;;;3.40;81.20;;;;;;5117295;28;20034;-40
2020/12/13 09:22:32;;;;;;;57.33;29.88;;;3.50;81.30;;;;;;5118343;28;20100;-40
2020/12/13 09:24:58;;;;;;;54.00;26.90;;;3.50;81.30;;;;;;5117373;28;20066;-42
2020/12/13 09:27:25;;;;;;;52.15;29.15;;;3.50;81.30;;;;;;5117603;28;20036;-43
2020/12/13 09:29:51;;;;;;;53.80;27.80;;;3.50;81.30;;;;;;5117194;28;20106;-41
2020/12/13 09:32:20;;;;;;;50.03;28.60;;;3.50;81.30;;;;;;5118372;28;20043;-40
2020/12/13 09:34:48;;;;;;;45.50;24.88;;;3.50;81.20;;;;;;5118191;28;20047;-45
2020/12/13 09:37:18;;;;;;;45.13;24.75;;;3.50;81.00;;;;;;5118247;28;20035;-45
2020/12/13 09:39:45;;;;;;;46.00;23.67;;;3.50;81.00;;;;;;5097873;28;20035;-45
2020/12/13 09:42:12;;;;;;;43.67;23.65;;;3.50;81.10;;;;;;5098306;28;20032;-46
2020/12/13 09:44:38;;;;;;;47.25;24.30;;;3.50;81.10;;;;;;5098133;28;20069;-46
2020/12/13 09:47:04;;;;;;;48.22;26.08;;;3.50;81.20;;;;;;5111831;28;20073;-45
2020/12/13 09:49:31;;;;;;;43.53;25.52;;;3.50;81.10;;;;;;5116425;28;20024;-45
2020/12/13 09:52:02;;;;;;;42.90;22.88;;;3.50;81.00;;;;;;5109195;28;20031;-44
2020/12/13 09:54:28;;;;;;;;;;;3.50;81.00;;;;;;5117236;28;20055;-45
2020/12/13 09:56:54;;;;;;;44.15;23.88;;;3.50;80.80;;;;;;5117716;28;19954;-45
2020/12/13 09:59:21;;;;;;;53.90;26.08;;;3.40;80.70;;;;;;5117467;28;20433;-42
2020/12/13 10:01:47;;;;;;;45.60;25.63;;;3.40;80.90;;;;;;5114898;28;20031;-41
2020/12/13 10:04:14;;;;;;;53.70;27.13;;;3.40;81.10;;;;;;5115229;28;20104;-42
2020/12/13 10:09:17;;;;;;;59.58;28.13;;;3.40;80.90;;;;;;5114676;28;20476;-41
2020/12/13 10:11:46;;;;;;;53.75;28.35;;;3.40;80.90;;;;;;5116827;28;20034;-47
2020/12/13 10:14:13;;;;;;;63.72;29.02;;;3.40;80.90;;;;;;5115868;28;20421;-41
2020/12/13 10:16:42;;;;;;;58.60;31.83;;;3.30;80.80;;;;;;5116682;28;20059;-41
2020/12/13 10:19:09;;;;;;;71.22;33.42;;;3.30;80.90;;;;;;5114315;28;20028;-45
2020/12/13 10:21:36;;;;;;;62.35;30.80;;;3.30;80.90;;;;;;5114313;28;20424;-45
2020/12/13 10:24:05;;;;;;;65.15;33.80;;;3.30;81.10;;;;;;5085815;28;20128;-45
2020/12/13 10:26:36;;;;;;;57.60;28.15;;;3.30;81.20;;;;;;5113788;28;20058;-41
2020/12/13 10:29:03;;;;;;;52.30;27.77;;;3.30;81.20;;;;;;5114635;28;20027;-41
2020/12/13 10:31:41;;;;;;;57.60;29.55;;;3.30;81.10;;;;;;5113684;28;20043;-45
2020/12/13 10:34:09;;;;;;;53.40;29.42;;;3.30;81.00;;;;;;5115643;28;20023;-46
2020/12/13 10:36:38;;;;;;;58.08;31.58;;;3.30;81.00;;;;;;5117752;28;20039;-40
2020/12/13 10:39:06;;;;;;;61.95;31.88;;;3.30;81.30;;;;;;5117129;28;20122;-41
2020/12/13 10:41:32;;;;;;;57.67;31.98;;;3.30;81.50;;;;;;5100397;28;20233;-45
2020/12/13 10:43:59;;;;;;;50.85;27.20;;;3.30;81.50;;;;;;5115312;28;20027;-45
2020/12/13 10:46:26;;;;;;;49.53;26.83;;;3.30;81.30;;;;;;5108662;28;20098;-46
2020/12/13 10:48:53;;;;;;;52.95;29.77;;;3.30;81.30;;;;;;5113152;28;20035;-45
2020/12/13 10:51:21;;;;;;;54.80;29.02;;;3.30;81.20;;;;;;5115897;28;20066;-45
2020/12/13 10:53:49;;;;;;;56.78;30.13;;;3.30;81.20;;;;;;5114574;28;20035;-45
2020/12/13 10:56:16;;;;;;;55.28;27.92;;;3.30;81.00;;;;;;5113325;28;20364;-45
2020/12/13 10:58:43;;;;;;;59.63;28.60;;;3.30;81.00;;;;;;5116199;27;20024;-45
2020/12/13 11:01:12;;;;;;;65.88;32.63;;;3.30;81.00;;;;;;5116506;28;20031;-45
2020/12/13 11:03:39;;;;;;;60.92;30.98;;;3.30;81.10;;;;;;5116169;28;20039;-45
2020/12/13 11:06:09;;;;;;;54.10;30.38;;;3.30;81.00;;;;;;5116071;28;20046;-42
2020/12/13 11:08:36;;;;;;;55.38;29.52;;;3.30;81.00;;;;;;5117586;28;20076;-45
2020/12/13 11:11:04;;;;;;;63.78;30.08;;;3.30;81.00;;;;;;5115113;28;20035;-46
2020/12/13 11:13:31;;;;;;;56.80;28.85;;;3.20;81.10;;;;;;5117545;28;20105;-45
2020/12/13 11:15:57;;;;;;;51.80;28.05;;;3.20;81.00;;;;;;5115549;28;20035;-46
2020/12/13 11:18:23;;;;;;;49.33;28.00;;;3.20;81.10;;;;;;5116869;28;20040;-40
2020/12/13 11:20:48;;;;;;;70.32;30.90;;;3.20;81.10;;;;;;5117017;28;20425;-44
2020/12/13 11:23:16;;;;;;;47.67;26.65;;;3.20;81.10;;;;;;5117544;28;20031;-45
2020/12/13 11:25:42;;;;;;;62.40;34.25;;;3.20;81.20;;;;;;5115279;28;20037;-41
2020/12/13 11:28:07;;;;;;;55.75;30.02;;;3.20;81.40;;;;;;5116209;28;20114;-41
2020/12/13 11:30:35;;;;;;;43.72;27.30;;;3.20;81.30;;;;;;5116124;28;20437;-45
2020/12/13 11:33:01;;;;;;;52.25;29.33;;;3.20;81.30;;;;;;5115000;28;20042;-40
2020/12/13 11:35:27;;;;;;;51.05;28.35;;;3.20;81.30;;;;;;5114582;28;20337;-42
2020/12/13 11:37:53;;;;;;;68.85;35.35;;;3.20;81.40;;;;;;5116017;28;20039;-40
2020/12/13 11:40:19;;;;;;;64.65;35.17;;;3.20;81.50;;;;;;5115177;28;20408;-45
2020/12/13 11:42:46;;;;;;;63.83;34.22;;;3.20;81.60;;;;;;5118029;28;20440;-41
2020/12/13 11:45:12;;;;;;;76.93;39.78;;;3.20;81.60;;;;;;5116900;28;20111;-41
2020/12/13 11:47:38;;;;;;;100.30;54.15;;;3.20;81.70;;;;;;5117475;28;20085;-46
2020/12/13 11:50:10;;;;;;;83.20;46.00;;;3.30;81.70;;;;;;5117911;28;20020;-40
2020/12/13 11:52:39;;;;;;;112.32;63.97;;;3.30;81.60;;;;;;5115559;28;20058;-40
2020/12/13 11:55:06;;;;;;;76.72;45.70;;;3.30;81.40;;;;;;5116105;28;20027;-45
2020/12/13 11:57:32;;;;;;;74.45;43.30;;;3.30;81.30;;;;;;5116389;28;20030;-44
2020/12/13 11:59:57;;;;;;;64.35;37.95;;;3.30;81.30;;;;;;5116813;28;20027;-45
2020/12/13 12:02:23;;;;;;;65.93;40.38;;;3.30;81.30;;;;;;5117146;28;20038;-41
2020/12/13 12:04:49;;;;;;;64.55;41.58;;;3.30;81.30;;;;;;5116734;28;20043;-41
2020/12/13 12:07:14;;;;;;;57.17;33.60;;;3.30;81.20;;;;;;5116957;28;20034;-40
2020/12/13 12:09:41;;;;;;;56.35;30.13;;;3.30;81.10;;;;;;5110759;28;20507;-40
2020/12/13 12:12:07;;;;;;;55.92;30.52;;;3.20;81.10;;;;;;5100977;28;20339;-46
2020/12/13 12:14:35;;;;;;;60.55;36.33;;;3.20;81.20;;;;;;5097510;28;20027;-40
2020/12/13 12:17:07;;;;;;;65.47;34.95;;;3.20;81.20;;;;;;5094321;28;20053;-40
2020/12/13 12:19:37;;;;;;;68.50;38.88;;;3.20;81.20;;;;;;5089441;28;20054;-41
2020/12/13 12:22:04;;;;;;;59.72;33.92;;;3.20;81.10;;;;;;5095639;28;20059;-41
2020/12/13 12:24:30;;;;;;;66.15;36.33;;;3.20;81.00;;;;;;5095402;28;20074;-39
2020/12/13 12:26:56;;;;;;;58.80;35.25;;;3.20;81.00;;;;;;5096465;28;20355;-38
2020/12/13 12:29:22;;;;;;;53.22;31.77;;;3.20;81.00;;;;;;5096244;28;20107;-44
2020/12/13 12:31:52;;;;;;;47.80;26.63;;;3.20;81.00;;;;;;5094949;28;20449;-44
2020/12/13 12:34:17;;;;;;;61.50;34.83;;;3.20;81.20;;;;;;5096216;28;20028;-39
2020/12/13 12:36:44;;;;;;;57.25;30.17;;;3.20;81.20;;;;;;5099301;28;20039;-39
2020/12/13 12:39:10;;;;;;;52.40;28.15;;;3.20;81.20;;;;;;5115138;28;20080;-44
2020/12/13 12:41:37;;;;;;;51.42;26.98;;;3.20;81.10;;;;;;5115120;28;20070;-44
2020/12/13 12:44:06;;;;;;;43.95;24.23;;;3.10;81.10;;;;;;5114773;28;20099;-40
2020/12/13 12:46:32;;;;;;;43.47;24.58;;;3.10;81.60;;;;;;5106460;28;20382;-39
2020/12/13 12:48:59;;;;;;;56.45;29.05;;;3.10;81.00;;;;;;5100620;28;20062;-44
2020/12/13 12:51:28;;;;;;;61.08;29.05;;;3.10;81.10;;;;;;5108094;28;20028;-44
2020/12/13 12:53:55;;;;;;;45.15;26.25;;;3.10;81.20;;;;;;5108642;28;20120;-45